createdAt,value
2022-12-13T00:01:54.859Z,9.30
2022-12-13T00:04:25.016Z,10.50
2022-12-13T00:06:54.215Z,9.20
2022-12-13T00:09:23.403Z,8.50
2022-12-13T00:11:52.308Z,10.90
2022-12-13T00:14:20.826Z,8.80
2022-12-13T00:16:49.782Z,8.20
2022-12-13T00:19:20.383Z,8.60
2022-12-13T00:21:48.387Z,8.20
2022-12-13T00:24:16.285Z,9.90
2022-12-13T00:26:44.932Z,8.70
2022-12-13T00:29:12.982Z,8.30
2022-12-13T00:32:00.431Z,9.00
2022-12-13T00:34:29.417Z,9.10
2022-12-13T00:37:00.640Z,10.30
2022-12-13T00:39:28.661Z,14.00
2022-12-13T00:41:57.283Z,10.70
2022-12-13T00:44:25.787Z,9.90
2022-12-13T00:46:53.923Z,13.90
2022-12-13T00:49:21.838Z,18.10
2022-12-13T00:51:49.874Z,15.30
2022-12-13T00:54:18.615Z,16.30
2022-12-13T00:56:46.617Z,9.00
2022-12-13T00:59:15.781Z,13.70
2022-12-13T01:01:44.214Z,16.60
2022-12-13T01:04:12.837Z,17.30
2022-12-13T01:06:45.674Z,11.30
2022-12-13T01:09:20.204Z,14.60
2022-12-13T01:11:49.264Z,11.90
2022-12-13T01:14:18.301Z,18.10
2022-12-13T01:16:46.233Z,19.40
2022-12-13T01:19:14.171Z,15.80
2022-12-13T01:21:42.037Z,10.80
2022-12-13T01:24:10.647Z,10.10
2022-12-13T01:26:38.571Z,9.70
2022-12-13T01:29:06.661Z,13.10
2022-12-13T01:31:34.543Z,15.90
2022-12-13T01:34:10.459Z,11.90
2022-12-13T01:36:43.493Z,13.20
2022-12-13T01:39:15.350Z,15.20
2022-12-13T01:41:50.422Z,11.80
2022-12-13T01:44:55.870Z,10.20
2022-12-13T01:47:46.748Z,9.00
2022-12-13T01:50:32.488Z,9.80
2022-12-13T01:53:01.190Z,10.80
2022-12-13T01:55:34.650Z,10.90
2022-12-13T01:58:12.039Z,9.30
2022-12-13T02:00:41.583Z,9.80
2022-12-13T02:03:21.315Z,11.10
2022-12-13T02:06:17.730Z,9.80
2022-12-13T02:08:46.880Z,10.20
2022-12-13T02:11:15.691Z,10.90
2022-12-13T02:13:43.483Z,12.60
2022-12-13T02:16:31.189Z,10.70
2022-12-13T02:19:38.453Z,11.80
2022-12-13T02:22:27.644Z,11.40
2022-12-13T02:25:18.935Z,11.60
2022-12-13T02:28:30.254Z,11.90
2022-12-13T02:31:14.794Z,11.20
2022-12-13T02:34:01.028Z,12.90
2022-12-13T02:36:36.670Z,14.00
2022-12-13T02:39:32.732Z,13.10
2022-12-13T02:42:21.406Z,14.20
2022-12-13T02:45:20.573Z,12.80
2022-12-13T02:47:54.674Z,13.40
2022-12-13T02:52:52.400Z,13.70
2022-12-13T02:55:23.946Z,14.50
2022-12-13T02:57:54.621Z,13.20
2022-12-13T03:00:30.426Z,14.30
2022-12-13T03:03:20.132Z,13.90
2022-12-13T03:06:15.924Z,12.50
2022-12-13T03:09:08.958Z,13.60
2022-12-13T03:12:12.592Z,12.90
2022-12-13T03:14:59.007Z,14.70
2022-12-13T03:17:31.572Z,12.20
2022-12-13T03:19:59.440Z,13.20
2022-12-13T03:22:27.287Z,14.10
2022-12-13T03:24:55.225Z,13.40
2022-12-13T03:27:23.132Z,15.50
2022-12-13T03:29:50.941Z,12.40
2022-12-13T03:32:18.822Z,15.40
2022-12-13T03:34:50.819Z,13.80
2022-12-13T03:37:28.752Z,12.20
2022-12-13T03:39:57.400Z,12.50
2022-12-13T03:42:25.871Z,14.70
2022-12-13T03:44:53.792Z,13.20
2022-12-13T03:47:21.630Z,13.50
2022-12-13T03:49:54.247Z,13.30
2022-12-13T03:52:22.266Z,15.40
2022-12-13T03:54:50.099Z,16.40
2022-12-13T03:57:17.997Z,23.80
2022-12-13T03:59:45.858Z,29.60
2022-12-13T04:02:13.868Z,40.10
2022-12-13T04:04:58.416Z,39.10
2022-12-13T04:07:34.354Z,31.70
2022-12-13T04:10:03.908Z,22.20
2022-12-13T04:13:10.985Z,19.20
2022-12-13T04:15:38.966Z,18.40
2022-12-13T04:18:07.232Z,15.30
2022-12-13T04:20:35.047Z,18.70
2022-12-13T04:23:09.977Z,19.00
2022-12-13T04:25:39.495Z,16.90
2022-12-13T04:28:08.257Z,18.00
2022-12-13T04:30:36.874Z,14.50
2022-12-13T04:33:04.720Z,15.50
2022-12-13T04:35:32.606Z,16.30
2022-12-13T04:38:00.505Z,17.20
2022-12-13T04:40:28.377Z,18.10
2022-12-13T04:42:56.266Z,16.70
2022-12-13T04:45:24.494Z,18.40
2022-12-13T04:47:52.424Z,19.00
2022-12-13T04:50:20.321Z,22.20
2022-12-13T04:52:48.194Z,15.40
2022-12-13T04:55:16.302Z,15.90
2022-12-13T04:57:44.462Z,13.30
2022-12-13T05:00:13.570Z,13.20
2022-12-13T05:02:42.036Z,14.90
2022-12-13T05:05:10.933Z,14.60
2022-12-13T05:07:42.616Z,14.90
2022-12-13T05:10:11.613Z,14.60
2022-12-13T05:12:39.544Z,16.10
2022-12-13T05:15:08.263Z,14.70
2022-12-13T05:17:36.107Z,14.70
2022-12-13T05:20:04.420Z,15.60
2022-12-13T05:22:32.352Z,14.00
2022-12-13T05:25:00.179Z,15.40
2022-12-13T05:27:27.992Z,15.20
2022-12-13T05:30:04.948Z,14.60
2022-12-13T05:32:42.650Z,14.00
2022-12-13T05:35:13.992Z,12.80
2022-12-13T05:37:42.411Z,11.80
2022-12-13T05:40:10.490Z,11.70
2022-12-13T05:42:39.232Z,12.90
2022-12-13T05:45:08.117Z,13.70
2022-12-13T05:47:35.948Z,13.30
2022-12-13T05:50:04.565Z,13.20
2022-12-13T05:52:32.412Z,13.40
2022-12-13T05:55:01.042Z,13.70
2022-12-13T05:57:29.568Z,11.00
2022-12-13T05:59:57.756Z,9.50
2022-12-13T06:07:24.466Z,11.10
2022-12-13T06:09:52.268Z,10.30
2022-12-13T06:12:43.285Z,9.60
2022-12-13T06:15:21.536Z,8.40
2022-12-13T06:17:50.677Z,7.90
2022-12-13T06:20:23.176Z,9.60
2022-12-13T06:22:53.246Z,9.30
2022-12-13T06:25:29.989Z,9.40
2022-12-13T06:28:01.362Z,8.90
2022-12-13T06:30:30.884Z,8.90
2022-12-13T06:32:58.973Z,11.30
2022-12-13T06:35:28.360Z,13.10
2022-12-13T06:38:01.340Z,15.50
2022-12-13T06:40:30.706Z,12.30
2022-12-13T06:42:58.614Z,11.90
2022-12-13T06:45:26.783Z,15.00
2022-12-13T06:47:56.076Z,13.40
2022-12-13T06:50:23.974Z,11.50
2022-12-13T06:52:51.840Z,12.40
2022-12-13T06:55:23.986Z,18.70
2022-12-13T06:57:52.028Z,20.90
2022-12-13T07:00:21.860Z,20.20
2022-12-13T07:02:55.368Z,19.00
2022-12-13T07:05:25.082Z,26.10
2022-12-13T07:07:53.475Z,19.40
2022-12-13T07:10:23.100Z,24.20
2022-12-13T07:12:51.015Z,22.70
2022-12-13T07:15:18.826Z,23.90
2022-12-13T07:17:50.722Z,30.60
2022-12-13T07:20:20.413Z,26.40
2022-12-13T07:22:58.336Z,22.00
2022-12-13T07:25:29.247Z,19.20
2022-12-13T07:28:01.217Z,19.80
2022-12-13T07:30:40.998Z,20.80
2022-12-13T07:33:09.790Z,19.30
2022-12-13T07:35:37.972Z,20.30
2022-12-13T07:38:08.744Z,16.40
2022-12-13T07:40:38.219Z,19.20
2022-12-13T07:43:06.946Z,18.00
2022-12-13T07:45:35.011Z,17.80
2022-12-13T07:48:07.018Z,13.60
2022-12-13T07:50:37.278Z,11.80
2022-12-13T07:53:08.148Z,16.10
2022-12-13T07:55:36.938Z,13.00
2022-12-13T07:58:13.316Z,16.60
2022-12-13T08:00:46.408Z,26.90
2022-12-13T08:03:25.691Z,26.60
2022-12-13T08:06:07.135Z,17.20
2022-12-13T08:08:35.898Z,15.30
2022-12-13T08:11:11.759Z,13.90
2022-12-13T08:13:41.086Z,13.60
2022-12-13T08:16:28.353Z,15.60
2022-12-13T08:19:03.119Z,12.60
2022-12-13T08:21:55.014Z,18.00
2022-12-13T08:24:26.124Z,17.80
2022-12-13T08:27:01.439Z,13.20
2022-12-13T08:29:33.215Z,15.80
2022-12-13T08:32:09.660Z,15.30
2022-12-13T08:34:38.809Z,15.60
2022-12-13T08:37:07.007Z,14.20
2022-12-13T08:39:37.019Z,14.20
2022-12-13T08:42:15.447Z,15.90
2022-12-13T08:44:46.732Z,16.40
2022-12-13T08:47:24.256Z,17.80
2022-12-13T08:50:04.066Z,16.20
2022-12-13T08:52:39.197Z,14.70
2022-12-13T08:55:13.591Z,11.60
2022-12-13T08:57:43.301Z,13.40
2022-12-13T09:00:17.030Z,13.70
2022-12-13T09:02:45.349Z,20.00
2022-12-13T09:05:33.847Z,11.60
2022-12-13T09:08:22.913Z,7.80
2022-12-13T09:11:11.205Z,9.10
2022-12-13T09:13:50.424Z,9.60
2022-12-13T09:16:24.523Z,9.20
2022-12-13T09:18:55.155Z,6.80
2022-12-13T09:21:31.252Z,7.10
2022-12-13T09:24:01.804Z,6.90
2022-12-13T09:26:38.484Z,11.10
2022-12-13T09:29:10.807Z,11.40
2022-12-13T09:31:40.571Z,11.10
2022-12-13T09:34:10.642Z,14.10
2022-12-13T09:36:38.968Z,15.40
2022-12-13T09:39:06.869Z,12.90
2022-12-13T09:41:40.813Z,11.50
2022-12-13T09:44:31.959Z,9.90
2022-12-13T09:47:13.814Z,11.80
2022-12-13T09:49:52.041Z,10.10
2022-12-13T09:52:24.749Z,13.90
2022-12-13T09:54:56.908Z,10.50
2022-12-13T09:57:34.279Z,11.90
2022-12-13T10:00:07.155Z,11.80
2022-12-13T10:02:45.320Z,8.30
2022-12-13T10:05:22.634Z,7.90
2022-12-13T10:07:55.390Z,8.90
2022-12-13T10:10:23.975Z,7.50
2022-12-13T10:13:00.270Z,9.50
2022-12-13T10:15:30.694Z,13.90
2022-12-13T10:18:03.157Z,9.00
2022-12-13T10:20:32.897Z,10.60
2022-12-13T10:23:52.488Z,10.80
2022-12-13T10:25:54.758Z,10.50
2022-12-13T10:28:33.438Z,10.80
2022-12-13T10:31:02.206Z,9.30
2022-12-13T10:33:31.671Z,12.70
2022-12-13T10:36:08.913Z,8.70
2022-12-13T10:38:46.587Z,17.20
2022-12-13T10:41:31.490Z,10.30
2022-12-13T10:44:22.884Z,10.30
2022-12-13T10:47:10.902Z,7.40
2022-12-13T10:49:59.065Z,8.10
2022-12-13T10:52:32.187Z,9.20
2022-12-13T10:55:23.246Z,8.90
2022-12-13T10:57:54.132Z,10.30
2022-12-13T11:00:37.886Z,7.40
2022-12-13T11:03:07.518Z,9.50
2022-12-13T11:05:38.130Z,16.00
2022-12-13T11:08:16.420Z,11.80
2022-12-13T11:10:44.646Z,11.70
2022-12-13T11:13:36.809Z,17.10
2022-12-13T11:16:35.476Z,23.10
2022-12-13T11:19:15.786Z,37.10
2022-12-13T11:21:48.580Z,10.90
2022-12-13T11:24:24.368Z,16.70
2022-12-13T11:26:58.831Z,18.80
2022-12-13T11:30:12.536Z,17.10
2022-12-13T11:33:01.747Z,18.30
2022-12-13T11:35:49.436Z,17.40
2022-12-13T11:38:59.313Z,10.10
2022-12-13T11:41:36.441Z,23.00
2022-12-13T11:44:13.648Z,19.30
2022-12-13T11:46:45.069Z,18.20
2022-12-13T11:49:20.687Z,20.10
2022-12-13T11:52:01.353Z,15.50
2022-12-13T11:54:38.144Z,17.20
2022-12-13T11:57:19.765Z,20.60
2022-12-13T11:59:53.594Z,18.60
2022-12-13T12:05:28.447Z,14.80
2022-12-13T12:11:19.246Z,11.30
2022-12-13T12:13:58.857Z,11.70
2022-12-13T12:16:49.609Z,13.90
2022-12-13T12:19:21.686Z,12.10
2022-12-13T12:22:15.556Z,14.20
2022-12-13T12:25:05.665Z,14.10
2022-12-13T12:27:48.396Z,15.20
2022-12-13T12:30:23.087Z,14.20
2022-12-13T12:32:54.948Z,15.70
2022-12-13T12:35:52.690Z,15.10
2022-12-13T12:38:23.922Z,14.90
2022-12-13T12:41:16.768Z,12.70
2022-12-13T12:43:54.601Z,12.30
2022-12-13T12:46:42.348Z,13.30
2022-12-13T12:50:03.021Z,16.40
2022-12-13T12:53:13.459Z,12.10
2022-12-13T12:56:10.909Z,14.70
2022-12-13T12:59:00.502Z,12.30
2022-12-13T13:02:03.777Z,14.00
2022-12-13T13:04:42.667Z,15.70
2022-12-13T13:07:28.796Z,12.90
2022-12-13T13:09:57.562Z,11.40
2022-12-13T13:12:30.472Z,11.50
2022-12-13T13:14:58.792Z,12.10
2022-12-13T13:17:26.557Z,9.40
2022-12-13T13:20:12.328Z,10.10
2022-12-13T13:22:43.305Z,11.30
2022-12-13T13:25:22.898Z,15.80
2022-12-13T13:27:51.308Z,14.50
2022-12-13T13:30:25.171Z,19.30
2022-12-13T13:32:55.666Z,24.60
2022-12-13T13:35:33.225Z,40.10
2022-12-13T13:38:16.849Z,31.50
2022-12-13T13:40:44.786Z,22.70
2022-12-13T13:43:12.830Z,19.00
2022-12-13T13:45:50.001Z,20.50
2022-12-13T13:48:46.050Z,19.80
2022-12-13T13:51:29.319Z,31.60
2022-12-13T13:54:22.475Z,28.60
2022-12-13T13:57:38.489Z,24.70
2022-12-13T14:00:17.933Z,40.20
2022-12-13T14:03:29.162Z,32.80
2022-12-13T14:06:26.506Z,67.70
2022-12-13T14:09:25.374Z,35.90
2022-12-13T14:12:23.885Z,28.70
2022-12-13T14:14:51.782Z,27.20
2022-12-13T14:18:00.816Z,34.60
2022-12-13T14:20:45.280Z,40.90
2022-12-13T14:23:48.389Z,44.20
2022-12-13T14:26:37.903Z,36.10
2022-12-13T14:29:16.186Z,53.00
2022-12-13T14:31:47.406Z,61.40
2022-12-13T14:34:30.064Z,53.70
2022-12-13T14:37:06.772Z,53.20
2022-12-13T14:39:34.760Z,45.20
2022-12-13T14:42:22.067Z,42.00
2022-12-13T14:44:50.629Z,42.90
2022-12-13T14:47:20.284Z,62.10
2022-12-13T14:49:53.830Z,103.60
2022-12-13T14:57:29.989Z,82.90
2022-12-13T14:59:59.938Z,87.50
2022-12-13T15:02:31.841Z,88.50
2022-12-13T15:05:03.882Z,71.90
2022-12-13T15:07:40.401Z,75.10
2022-12-13T15:10:31.810Z,53.50
2022-12-13T15:13:00.169Z,48.60
2022-12-13T15:15:32.904Z,66.20
2022-12-13T15:18:10.090Z,60.20
2022-12-13T15:20:41.898Z,72.80
2022-12-13T15:23:21.881Z,58.20
2022-12-13T15:26:28.425Z,50.90
2022-12-13T15:29:10.169Z,53.30
2022-12-13T15:31:40.580Z,54.10
2022-12-13T15:34:28.862Z,51.50
2022-12-13T15:37:30.435Z,63.50
2022-12-13T15:40:08.207Z,78.80
2022-12-13T15:42:39.146Z,216.90
2022-12-13T15:45:19.776Z,180.20
2022-12-13T15:47:49.163Z,120.00
2022-12-13T15:50:36.459Z,80.20
2022-12-13T15:53:21.651Z,68.90
2022-12-13T15:55:49.650Z,66.30
2022-12-13T15:58:35.146Z,64.90
2022-12-13T16:01:05.631Z,58.60
2022-12-13T16:03:45.378Z,58.90
2022-12-13T16:06:22.351Z,60.10
2022-12-13T16:08:54.296Z,64.80
2022-12-13T16:11:34.232Z,79.90
2022-12-13T16:14:30.636Z,84.90
2022-12-13T16:17:09.010Z,80.30
2022-12-13T16:19:37.031Z,74.10
2022-12-13T16:22:08.543Z,58.80
2022-12-13T16:24:37.582Z,43.90
2022-12-13T16:27:08.825Z,48.10
2022-12-13T16:29:36.970Z,51.50
2022-12-13T16:32:08.843Z,56.00
2022-12-13T16:34:37.915Z,66.30
2022-12-13T16:37:09.039Z,70.10
2022-12-13T16:39:54.521Z,68.30
2022-12-13T16:42:26.097Z,70.60
2022-12-13T16:45:17.846Z,74.00
2022-12-13T16:47:49.089Z,81.90
2022-12-13T16:52:49.000Z,91.90
2022-12-13T16:55:17.460Z,87.00
2022-12-13T16:58:02.265Z,90.80
2022-12-13T17:03:00.029Z,78.30
2022-12-13T17:05:29.517Z,82.80
2022-12-13T17:07:57.548Z,79.10
2022-12-13T17:10:26.323Z,82.80
2022-12-13T17:12:54.219Z,83.40
2022-12-13T17:15:22.132Z,89.50
2022-12-13T17:17:50.074Z,77.60
2022-12-13T17:20:18.478Z,85.60
2022-12-13T17:22:46.966Z,83.70
2022-12-13T17:25:15.196Z,98.10
2022-12-13T17:27:43.108Z,92.00
2022-12-13T17:30:20.453Z,82.90
2022-12-13T17:32:48.305Z,93.80
2022-12-13T17:35:18.500Z,100.60
2022-12-13T17:37:46.670Z,97.10
2022-12-13T17:40:16.862Z,87.50
2022-12-13T17:42:45.825Z,97.70
2022-12-13T17:45:13.968Z,93.80
2022-12-13T17:47:42.887Z,82.10
2022-12-13T17:50:10.743Z,68.90
2022-12-13T17:52:39.210Z,69.90
2022-12-13T17:55:11.228Z,67.90
2022-12-13T18:08:39.040Z,73.20
2022-12-13T18:13:56.560Z,70.30
2022-12-13T18:16:34.149Z,69.30
2022-12-13T18:19:07.158Z,74.80
2022-12-13T18:21:37.056Z,74.80
2022-12-13T18:24:09.586Z,72.10
2022-12-13T18:26:37.611Z,76.90
2022-12-13T18:29:05.622Z,62.10
2022-12-13T18:31:33.753Z,53.50
2022-12-13T18:34:01.726Z,47.00
2022-12-13T18:36:30.270Z,48.80
2022-12-13T18:38:58.652Z,48.30
2022-12-13T18:41:29.172Z,50.80
2022-12-13T18:44:02.719Z,43.70
2022-12-13T18:46:37.645Z,49.00
2022-12-13T18:49:06.732Z,50.90
2022-12-13T18:51:34.910Z,50.20
2022-12-13T18:54:03.034Z,58.10
2022-12-13T18:56:31.047Z,52.80
2022-12-13T18:58:59.749Z,52.20
2022-12-13T19:01:28.763Z,59.10
2022-12-13T19:03:57.479Z,61.60
2022-12-13T19:06:27.581Z,69.10
2022-12-13T19:08:57.936Z,83.30
2022-12-13T19:11:27.738Z,119.30
2022-12-13T19:13:58.235Z,116.70
2022-12-13T19:16:26.812Z,130.60
2022-12-13T19:18:55.041Z,144.10
2022-12-13T19:21:23.275Z,157.50
2022-12-13T19:23:56.954Z,164.40
2022-12-13T19:26:31.618Z,230.10
2022-12-13T19:28:59.728Z,268.90
2022-12-13T19:31:32.130Z,298.50
2022-12-13T19:34:02.571Z,284.00
2022-12-13T19:36:32.330Z,299.60
2022-12-13T19:39:01.005Z,258.40
2022-12-13T19:41:32.100Z,220.80
2022-12-13T19:44:04.494Z,204.60
2022-12-13T19:46:33.350Z,186.30
2022-12-13T19:49:01.473Z,143.70
2022-12-13T19:51:33.134Z,123.10
2022-12-13T19:54:04.384Z,110.20
2022-12-13T19:56:32.482Z,84.30
2022-12-13T19:59:01.293Z,76.00
2022-12-13T20:01:29.379Z,81.10
2022-12-13T20:03:59.711Z,74.40
2022-12-13T20:06:27.697Z,63.50
2022-12-13T20:08:55.742Z,71.40
2022-12-13T20:11:24.181Z,68.10
2022-12-13T20:13:55.265Z,64.90
2022-12-13T20:16:25.874Z,59.90
2022-12-13T20:18:57.742Z,54.20
2022-12-13T20:21:27.797Z,51.60
2022-12-13T20:23:56.646Z,53.50
2022-12-13T20:26:26.872Z,43.90
2022-12-13T20:28:55.777Z,47.30
2022-12-13T20:31:27.403Z,57.70
2022-12-13T20:33:56.911Z,107.50
2022-12-13T20:36:27.740Z,90.30
2022-12-13T20:38:57.647Z,82.20
2022-12-13T20:41:28.123Z,82.00
2022-12-13T20:43:59.224Z,106.30
2022-12-13T20:46:29.134Z,112.40
2022-12-13T20:49:00.141Z,135.30
2022-12-13T20:51:29.750Z,166.70
2022-12-13T20:53:58.596Z,137.80
2022-12-13T20:56:29.507Z,129.90
2022-12-13T20:58:58.067Z,163.60
2022-12-13T21:01:28.470Z,155.30
2022-12-13T21:04:00.246Z,148.40
2022-12-13T21:06:29.946Z,148.40
2022-12-13T21:09:05.305Z,161.50
2022-12-13T21:11:38.960Z,176.60
2022-12-13T21:14:16.680Z,139.50
2022-12-13T21:17:09.903Z,102.10
2022-12-13T21:19:40.327Z,83.70
2022-12-13T21:22:08.677Z,77.30
2022-12-13T21:24:36.733Z,78.70
2022-12-13T21:27:06.581Z,75.60
2022-12-13T21:29:34.494Z,90.00
2022-12-13T21:32:02.527Z,104.10
2022-12-13T21:34:30.525Z,117.30
2022-12-13T21:36:58.414Z,110.80
2022-12-13T21:39:29.777Z,129.70
2022-12-13T21:41:58.270Z,132.80
2022-12-13T21:44:26.303Z,148.80
2022-12-13T21:47:11.733Z,139.50
2022-12-13T21:49:41.132Z,138.30
2022-12-13T21:52:09.185Z,114.60
2022-12-13T21:54:37.102Z,115.60
2022-12-13T21:57:23.387Z,102.10
2022-12-13T21:59:51.481Z,112.90
2022-12-13T22:02:19.809Z,116.10
2022-12-13T22:04:49.574Z,114.30
2022-12-13T22:07:23.624Z,122.40
2022-12-13T22:09:53.228Z,116.20
2022-12-13T22:12:33.315Z,109.00
2022-12-13T22:15:01.769Z,101.20
2022-12-13T22:17:35.124Z,109.20
2022-12-13T22:20:06.890Z,117.90
2022-12-13T22:22:34.893Z,117.90
2022-12-13T22:25:03.050Z,117.30
2022-12-13T22:27:31.088Z,117.90
2022-12-13T22:29:59.758Z,112.10
2022-12-13T22:32:31.462Z,120.00
2022-12-13T22:34:59.427Z,109.90
2022-12-13T22:37:27.371Z,104.50
2022-12-13T22:39:55.351Z,99.60
2022-12-13T22:42:23.237Z,98.30
2022-12-13T22:44:51.141Z,100.60
2022-12-13T22:47:19.521Z,94.30
2022-12-13T22:49:48.681Z,104.90
2022-12-13T22:52:17.657Z,105.80
2022-12-13T22:54:45.879Z,100.20
2022-12-13T22:57:14.073Z,107.30
2022-12-13T22:59:42.036Z,102.40
2022-12-13T23:02:10.225Z,105.80
2022-12-13T23:04:39.401Z,130.30
2022-12-13T23:07:07.640Z,132.40
2022-12-13T23:09:35.726Z,121.90
2022-12-13T23:12:22.156Z,126.10
2022-12-13T23:14:51.439Z,132.90
2022-12-13T23:17:19.445Z,127.80
2022-12-13T23:19:51.500Z,124.20
2022-12-13T23:22:23.515Z,133.80
2022-12-13T23:24:52.774Z,134.40
2022-12-13T23:27:22.885Z,137.80
2022-12-13T23:29:50.882Z,125.20
2022-12-13T23:32:19.292Z,130.80
2022-12-13T23:34:47.368Z,128.00
2022-12-13T23:37:15.514Z,117.00
2022-12-13T23:39:43.454Z,111.20
2022-12-13T23:42:11.589Z,117.70
2022-12-13T23:44:39.536Z,120.80
2022-12-13T23:47:07.522Z,117.00
2022-12-13T23:49:35.444Z,120.00
2022-12-13T23:52:03.422Z,115.60
2022-12-13T23:54:31.264Z,113.70
2022-12-13T23:56:59.125Z,120.40
2022-12-13T23:59:27.928Z,129.20
